Time;durP1;ratioP1;P1;durP2;ratioP2;P2;SDS_P1;SDS_P2;PMS_P1;PMS_P2;Temp;Humidity;BMP_temperature;BMP_pressure;BME280_temperature;BME280_humidity;BME280_pressure;Samples;Min_cycle;Max_cycle;Signal;HPM_P1;HPM_P2
2022/12/28 00:02:25;;;;;;;7.35;1.90;;;5.10;99.90;;;;;;7290588;32;20163;-60
2022/12/28 00:06:27;;;;;;;8.75;2.00;;;5.20;99.90;;;;;;7291785;32;20124;-60
2022/12/28 00:10:29;;;;;;;7.10;2.33;;;5.30;99.90;;;;;;7291835;32;20105;-60
2022/12/28 00:14:51;;;;;;;4.45;1.50;;;5.20;99.90;;;;;;7292668;32;20714;-59
2022/12/28 00:18:58;;;;;;;6.75;1.40;;;5.30;99.90;;;;;;7294605;32;20134;-59
2022/12/28 00:23:04;;;;;;;5.93;1.70;;;5.40;99.90;;;;;;7292007;32;20465;-59
2022/12/28 00:27:06;;;;;;;7.20;1.50;;;5.40;99.90;;;;;;7293251;32;20224;-61
2022/12/28 00:31:08;;;;;;;6.57;1.65;;;5.50;99.90;;;;;;7294613;32;20489;-60
2022/12/28 00:35:09;;;;;;;4.03;1.50;;;5.50;99.90;;;;;;7294376;32;20215;-60
2022/12/28 00:39:11;;;;;;;7.30;1.50;;;5.50;99.90;;;;;;7291039;32;20462;-59
2022/12/28 00:43:13;;;;;;;5.30;1.42;;;5.30;99.90;;;;;;7290822;32;20120;-59
2022/12/28 00:47:15;;;;;;;5.85;1.58;;;5.20;99.90;;;;;;7290463;32;20134;-60
2022/12/28 00:51:18;;;;;;;6.68;1.48;;;5.20;99.90;;;;;;7293302;32;20556;-61
2022/12/28 00:55:20;;;;;;;6.15;1.58;;;5.30;99.90;;;;;;7287596;32;20815;-59
2022/12/28 00:59:22;;;;;;;5.25;1.42;;;5.30;99.90;;;;;;7286075;32;20108;-59
2022/12/28 01:03:23;;;;;;;5.40;1.60;;;5.20;99.90;;;;;;7289969;32;20238;-61
2022/12/28 01:07:25;;;;;;;7.12;1.70;;;5.20;99.90;;;;;;7292469;32;21181;-60
2022/12/28 01:11:28;;;;;;;8.25;1.90;;;5.20;99.90;;;;;;7292843;32;20173;-60
2022/12/28 01:15:30;;;;;;;9.32;1.30;;;5.20;99.90;;;;;;7291124;32;20214;-59
2022/12/28 01:19:32;;;;;;;4.15;1.52;;;5.30;99.90;;;;;;7292342;32;20158;-59
2022/12/28 01:23:33;;;;;;;6.37;1.62;;;5.40;99.90;;;;;;7298249;32;20120;-59
2022/12/28 01:27:35;;;;;;;7.65;1.62;;;5.30;99.90;;;;;;7291596;32;20317;-60
2022/12/28 01:31:37;;;;;;;6.47;1.75;;;5.30;99.90;;;;;;7295987;32;20199;-59
2022/12/28 01:35:38;;;;;;;6.78;1.87;;;5.30;99.90;;;;;;7297390;32;20168;-59
2022/12/28 01:39:40;;;;;;;5.37;2.05;;;5.30;99.90;;;;;;7296436;32;20103;-59
2022/12/28 01:43:52;;;;;;;3.47;1.70;;;5.40;99.90;;;;;;7298778;32;20393;-61
2022/12/28 01:47:56;;;;;;;5.20;1.83;;;5.50;99.90;;;;;;7296914;32;20218;-60
2022/12/28 01:52:08;;;;;;;3.20;1.87;;;5.50;99.90;;;;;;7294470;32;20194;-60
2022/12/28 01:56:10;;;;;;;5.03;1.45;;;5.50;99.90;;;;;;7294986;32;20108;-61
2022/12/28 02:00:14;;;;;;;10.95;2.20;;;5.50;99.90;;;;;;7295444;32;20135;-59
2022/12/28 02:04:16;;;;;;;4.43;1.33;;;5.60;99.90;;;;;;7298386;32;20280;-60
2022/12/28 02:08:21;;;;;;;5.35;1.58;;;5.70;99.90;;;;;;7296527;32;20727;-59
2022/12/28 02:12:24;;;;;;;5.97;1.58;;;5.80;99.90;;;;;;7296954;32;20289;-60
2022/12/28 02:16:26;;;;;;;3.70;1.42;;;5.80;99.90;;;;;;7293732;32;20346;-59
2022/12/28 02:21:14;;;;;;;5.85;1.62;;;5.90;99.90;;;;;;7294316;32;20443;-59
2022/12/28 02:25:35;;;;;;;4.93;1.35;;;5.90;99.90;;;;;;7292388;32;20151;-59
2022/12/28 02:29:37;;;;;;;4.15;1.52;;;6.00;99.90;;;;;;7288865;32;20140;-59
2022/12/28 02:33:54;;;;;;;5.57;1.58;;;6.00;99.90;;;;;;7290596;32;20138;-59
2022/12/28 02:38:19;;;;;;;10.35;1.52;;;6.10;99.90;;;;;;7294864;32;20187;-60
2022/12/28 02:42:23;;;;;;;3.85;1.45;;;6.10;99.90;;;;;;7294788;32;20432;-59
2022/12/28 02:50:58;;;;;;;3.15;1.40;;;6.10;99.90;;;;;;7297256;32;20597;-59
2022/12/28 03:00:03;;;;;;;3.78;1.30;;;6.20;99.90;;;;;;7288793;32;20131;-60
2022/12/28 03:04:27;;;;;;;5.57;1.75;;;6.30;99.90;;;;;;7293630;32;20108;-59
2022/12/28 03:08:57;;;;;;;7.00;1.40;;;6.30;99.90;;;;;;7293462;32;20678;-59
2022/12/28 03:13:04;;;;;;;2.25;1.37;;;6.40;99.90;;;;;;7293311;32;20116;-60
2022/12/28 03:34:38;;;;;;;9.48;1.30;;;6.40;99.90;;;;;;7290646;32;20411;-60
2022/12/28 03:39:21;;;;;;;3.17;1.25;;;6.50;99.90;;;;;;7293636;32;20124;-60
2022/12/28 03:43:39;;;;;;;2.12;1.05;;;6.50;99.90;;;;;;7277635;32;20112;-60
2022/12/28 03:47:43;;;;;;;3.25;1.60;;;6.60;99.90;;;;;;7290957;32;20158;-60
2022/12/28 03:51:47;;;;;;;4.05;1.15;;;6.70;99.90;;;;;;7294013;32;20392;-60
2022/12/28 03:55:48;;;;;;;5.07;1.00;;;6.80;99.90;;;;;;7271230;32;20680;-59
2022/12/28 03:59:50;;;;;;;3.95;1.23;;;6.80;99.90;;;;;;7291219;32;20191;-60
2022/12/28 04:03:52;;;;;;;3.58;1.12;;;6.90;99.90;;;;;;7290192;32;20761;-59
2022/12/28 04:07:53;;;;;;;1.75;0.98;;;7.00;99.90;;;;;;7293371;32;20112;-60
2022/12/28 04:11:55;;;;;;;2.60;1.20;;;7.00;99.90;;;;;;7289189;32;20888;-60
2022/12/28 04:16:09;;;;;;;3.10;1.00;;;7.10;99.90;;;;;;7288782;32;20130;-59
2022/12/28 04:20:11;;;;;;;2.78;1.35;;;7.10;99.90;;;;;;7290160;32;20184;-60
2022/12/28 04:24:12;;;;;;;2.45;1.00;;;7.10;99.90;;;;;;7288196;32;20143;-60
2022/12/28 04:28:14;;;;;;;2.20;1.00;;;7.30;99.90;;;;;;7293694;32;20749;-60
2022/12/28 04:32:16;;;;;;;3.72;1.48;;;7.30;99.90;;;;;;7292828;32;20136;-61
2022/12/28 04:36:17;;;;;;;3.08;0.80;;;7.30;99.90;;;;;;7289664;32;20108;-59
2022/12/28 04:40:19;;;;;;;3.00;1.00;;;7.30;99.90;;;;;;7294096;32;21285;-59
2022/12/28 04:44:21;;;;;;;2.50;1.00;;;7.30;99.90;;;;;;7292010;32;20168;-59
2022/12/28 04:48:22;;;;;;;2.95;1.20;;;7.40;99.90;;;;;;7290744;32;20182;-59
2022/12/28 04:52:24;;;;;;;4.03;1.10;;;7.30;99.90;;;;;;7289727;32;20210;-59
2022/12/28 04:56:26;;;;;;;2.72;1.23;;;7.40;99.90;;;;;;7293043;32;20107;-59
2022/12/28 05:00:28;;;;;;;4.30;1.00;;;7.40;99.90;;;;;;7294783;32;20226;-63
2022/12/28 05:04:29;;;;;;;3.28;1.15;;;7.50;99.90;;;;;;7292737;32;20245;-60
2022/12/28 05:08:32;;;;;;;2.22;1.10;;;7.50;99.90;;;;;;7297415;32;20183;-59
2022/12/28 05:12:34;;;;;;;2.33;0.85;;;7.50;99.90;;;;;;7300222;32;20306;-60
2022/12/28 05:16:35;;;;;;;2.75;1.00;;;7.60;99.90;;;;;;7295379;32;20195;-59
2022/12/28 05:20:37;;;;;;;4.35;1.02;;;7.60;99.90;;;;;;7297038;32;20651;-60
2022/12/28 05:24:39;;;;;;;2.70;1.02;;;7.70;99.90;;;;;;7284762;32;21004;-59
2022/12/28 05:28:41;;;;;;;5.22;1.23;;;7.60;99.90;;;;;;7297856;32;20138;-59
2022/12/28 05:32:43;;;;;;;1.65;0.80;;;7.70;99.90;;;;;;7296382;32;20217;-61
2022/12/28 05:36:45;;;;;;;1.23;0.70;;;7.80;99.90;;;;;;7292544;32;20279;-59
2022/12/28 05:40:46;;;;;;;1.50;0.90;;;8.00;99.90;;;;;;7296145;32;20134;-59
2022/12/28 05:44:48;;;;;;;6.05;1.45;;;8.10;99.90;;;;;;7298643;32;20139;-60
2022/12/28 05:48:50;;;;;;;3.05;1.05;;;8.20;99.90;;;;;;7293957;32;20310;-60
2022/12/28 05:52:52;;;;;;;3.17;0.98;;;8.30;99.90;;;;;;7298130;32;20116;-60
2022/12/28 05:56:54;;;;;;;4.28;1.00;;;8.30;99.90;;;;;;7297239;32;20104;-60
2022/12/28 06:01:08;;;;;;;5.65;0.98;;;8.40;99.90;;;;;;7293735;32;20180;-59
2022/12/28 06:05:10;;;;;;;4.28;0.98;;;8.40;99.90;;;;;;7295826;32;20224;-60
2022/12/28 06:09:12;;;;;;;5.50;1.48;;;8.40;99.90;;;;;;7298264;32;20117;-60
2022/12/28 06:13:13;;;;;;;3.15;0.80;;;8.50;99.90;;;;;;7293520;32;20166;-59
2022/12/28 06:17:15;;;;;;;2.35;0.65;;;8.50;99.90;;;;;;7293304;32;20112;-60
2022/12/28 06:21:28;;;;;;;3.80;0.90;;;8.60;99.90;;;;;;7296574;32;20126;-59
2022/12/28 06:25:30;;;;;;;5.15;1.00;;;8.60;99.90;;;;;;7297360;32;20213;-60
2022/12/28 06:29:32;;;;;;;2.62;0.52;;;8.60;99.90;;;;;;7297935;32;20269;-60
2022/12/28 06:33:34;;;;;;;4.47;0.75;;;8.70;99.90;;;;;;7296333;32;20207;-60
2022/12/28 06:37:35;;;;;;;4.03;0.98;;;8.70;99.90;;;;;;7296345;32;20112;-60
2022/12/28 06:41:37;;;;;;;2.87;1.02;;;8.70;99.90;;;;;;7294915;32;20198;-61
2022/12/28 06:45:39;;;;;;;3.50;0.90;;;8.70;99.90;;;;;;7293615;32;20140;-59
2022/12/28 06:49:41;;;;;;;4.55;0.90;;;8.80;99.90;;;;;;7295500;32;20616;-60
2022/12/28 06:53:43;;;;;;;3.78;0.70;;;8.70;99.90;;;;;;7293539;32;21212;-61
2022/12/28 06:57:45;;;;;;;3.45;0.88;;;8.70;99.90;;;;;;7296200;32;20196;-59
2022/12/28 07:01:46;;;;;;;2.85;1.15;;;8.60;99.90;;;;;;7289763;32;20127;-60
2022/12/28 07:05:49;;;;;;;3.30;0.90;;;8.60;99.90;;;;;;7290863;32;20103;-59
2022/12/28 07:09:51;;;;;;;3.87;1.05;;;8.60;99.90;;;;;;7284151;32;20153;-61
2022/12/28 07:13:52;;;;;;;3.62;1.10;;;8.60;99.90;;;;;;7292346;32;20111;-62
2022/12/28 07:17:54;;;;;;;4.32;0.85;;;8.60;99.90;;;;;;7288195;32;20337;-62
2022/12/28 07:21:56;;;;;;;3.40;1.00;;;8.70;99.90;;;;;;7278395;32;20238;-60
2022/12/28 07:26:10;;;;;;;2.45;0.73;;;8.70;99.90;;;;;;7272488;32;20142;-60
2022/12/28 07:30:12;;;;;;;3.60;0.90;;;8.70;99.90;;;;;;7286609;32;20199;-60
2022/12/28 07:34:14;;;;;;;3.70;1.02;;;8.70;99.90;;;;;;7293270;32;20475;-62
2022/12/28 07:38:16;;;;;;;3.72;0.90;;;8.70;99.90;;;;;;7286931;32;20225;-62
2022/12/28 07:42:22;;;;;;;2.22;0.88;;;8.70;99.90;;;;;;7294554;32;20149;-62
2022/12/28 07:46:27;;;;;;;2.25;0.95;;;8.80;99.90;;;;;;7288397;32;20415;-64
2022/12/28 07:50:29;;;;;;;4.10;0.73;;;8.70;99.90;;;;;;7291973;32;20141;-63
2022/12/28 07:54:38;;;;;;;5.18;0.65;;;8.70;99.90;;;;;;7288188;32;20134;-64
2022/12/28 07:58:40;;;;;;;3.47;0.95;;;8.70;99.90;;;;;;7293854;32;20151;-62
2022/12/28 08:02:41;;;;;;;1.98;0.70;;;8.70;99.90;;;;;;7294436;32;20132;-63
2022/12/28 08:06:44;;;;;;;2.85;0.90;;;8.70;99.90;;;;;;7293631;32;20209;-64
2022/12/28 08:10:46;;;;;;;4.85;0.80;;;8.70;99.90;;;;;;7290958;32;20230;-63
2022/12/28 08:14:47;;;;;;;4.30;0.80;;;8.80;99.90;;;;;;7291215;32;20139;-63
2022/12/28 08:18:49;;;;;;;51.05;29.25;;;8.80;99.90;;;;;;7287172;32;20123;-61
2022/12/28 08:22:52;;;;;;;3.22;0.70;;;8.90;99.90;;;;;;7275538;32;20154;-65
2022/12/28 08:26:53;;;;;;;3.67;0.77;;;8.90;99.90;;;;;;7288066;32;20483;-65
2022/12/28 08:30:55;;;;;;;2.75;0.90;;;8.90;99.90;;;;;;7293107;32;20216;-64
2022/12/28 08:34:57;;;;;;;5.78;2.45;;;8.90;99.90;;;;;;7296507;32;20108;-64
2022/12/28 08:38:59;;;;;;;2.40;0.70;;;9.00;99.90;;;;;;7294514;32;20133;-63
2022/12/28 08:43:01;;;;;;;2.22;0.75;;;9.00;99.90;;;;;;7292917;32;20111;-64
2022/12/28 08:47:04;;;;;;;1.85;0.45;;;9.00;99.90;;;;;;7293228;32;20136;-66
2022/12/28 08:51:09;;;;;;;2.90;0.60;;;9.10;99.90;;;;;;7266204;32;20191;-63
2022/12/28 08:55:11;;;;;;;2.12;0.62;;;9.10;99.90;;;;;;7292382;32;20229;-63
2022/12/28 08:59:17;;;;;;;1.77;0.52;;;9.10;99.90;;;;;;7285445;32;20221;-62
2022/12/28 09:03:19;;;;;;;1.23;0.65;;;9.20;99.90;;;;;;7289764;32;20105;-63
2022/12/28 09:07:20;;;;;;;3.00;0.60;;;9.20;99.90;;;;;;7286450;32;20116;-61
2022/12/28 09:11:22;;;;;;;2.78;1.27;;;9.20;99.90;;;;;;7288128;32;20112;-61
2022/12/28 09:15:24;;;;;;;3.62;1.08;;;9.30;99.90;;;;;;7292588;32;20288;-62
2022/12/28 09:19:26;;;;;;;3.58;0.52;;;9.30;99.90;;;;;;7295893;32;20227;-60
2022/12/28 09:23:28;;;;;;;4.80;0.50;;;9.50;99.90;;;;;;7292334;32;20245;-61
2022/12/28 09:27:30;;;;;;;2.55;0.93;;;9.70;99.90;;;;;;7296034;32;20338;-61
2022/12/28 09:31:34;;;;;;;18.08;2.03;;;9.60;99.90;;;;;;7294923;32;20442;-61
2022/12/28 09:35:36;;;;;;;4.43;0.75;;;9.60;99.90;;;;;;7296545;32;20197;-60
2022/12/28 09:39:38;;;;;;;3.67;0.40;;;9.60;99.90;;;;;;7293932;32;20115;-61
2022/12/28 09:43:41;;;;;;;2.20;0.60;;;9.60;99.90;;;;;;7295652;32;20203;-61
2022/12/28 09:47:47;;;;;;;2.78;0.60;;;9.60;99.90;;;;;;7268825;32;20112;-60
2022/12/28 09:51:56;;;;;;;3.30;0.68;;;9.60;99.90;;;;;;7291339;32;20111;-61
2022/12/28 09:56:05;;;;;;;2.70;0.45;;;9.70;99.90;;;;;;7292717;32;20203;-61
2022/12/28 10:00:15;;;;;;;2.95;0.50;;;9.70;99.90;;;;;;7289434;32;20236;-61
2022/12/28 10:04:17;;;;;;;4.25;0.55;;;9.80;99.90;;;;;;7289437;32;20133;-61
2022/12/28 10:08:21;;;;;;;2.10;0.60;;;9.80;99.90;;;;;;7290079;32;20202;-60
2022/12/28 10:12:23;;;;;;;1.05;0.50;;;9.70;99.90;;;;;;7289966;32;20486;-61
2022/12/28 10:16:28;;;;;;;1.55;0.50;;;9.80;99.90;;;;;;7285736;32;20211;-61
2022/12/28 10:20:31;;;;;;;1.45;0.40;;;9.80;99.90;;;;;;7289100;32;20330;-61
2022/12/28 10:24:33;;;;;;;2.42;0.50;;;9.80;99.90;;;;;;7288107;32;20210;-61
2022/12/28 10:28:51;;;;;;;0.70;0.40;;;9.80;99.90;;;;;;7287028;32;20156;-61
2022/12/28 10:32:58;;;;;;;4.95;2.03;;;9.90;99.90;;;;;;7293445;32;20240;-62
2022/12/28 10:37:15;;;;;;;3.35;0.60;;;9.90;99.90;;;;;;7296592;32;20681;-61
2022/12/28 10:41:18;;;;;;;2.15;0.60;;;9.90;99.90;;;;;;7291456;32;20254;-61
2022/12/28 10:45:34;;;;;;;2.25;0.50;;;10.00;99.90;;;;;;7289849;32;20200;-62
2022/12/28 10:49:37;;;;;;;3.12;1.45;;;10.00;99.90;;;;;;7290848;32;20109;-57
2022/12/28 10:53:38;;;;;;;1.73;0.70;;;10.20;99.90;;;;;;7292215;32;20923;-59
2022/12/28 10:57:40;;;;;;;1.70;0.50;;;10.50;99.90;;;;;;7294953;32;20220;-62
2022/12/28 11:02:26;;;;;;;3.08;0.60;;;10.40;99.90;;;;;;7289273;32;20230;-62
2022/12/28 11:06:34;;;;;;;1.92;0.47;;;10.40;99.90;;;;;;7290988;32;20286;-62
2022/12/28 11:10:36;;;;;;;;;;;10.30;99.90;;;;;;7284886;32;20120;-62
2022/12/28 11:14:38;;;;;;;4.87;0.60;;;10.20;99.90;;;;;;7291573;32;20041;-62
2022/12/28 11:18:40;;;;;;;3.00;0.60;;;10.20;99.90;;;;;;7296270;32;20107;-62
2022/12/28 11:22:42;;;;;;;2.42;0.65;;;10.20;99.90;;;;;;7293229;32;20140;-61
2022/12/28 11:26:46;;;;;;;1.55;0.60;;;10.20;99.90;;;;;;7291848;32;20155;-63
2022/12/28 11:30:50;;;;;;;2.03;0.60;;;10.20;99.90;;;;;;7296046;32;20107;-63
2022/12/28 11:34:54;;;;;;;2.85;0.70;;;10.20;99.90;;;;;;7294674;32;20107;-62
2022/12/28 11:38:56;;;;;;;2.50;0.60;;;10.20;99.90;;;;;;7290131;32;20135;-62
2022/12/28 11:42:58;;;;;;;4.53;0.77;;;10.10;99.90;;;;;;7293780;32;20120;-62
2022/12/28 11:47:14;;;;;;;2.78;0.70;;;10.10;99.90;;;;;;7289297;32;20318;-62
2022/12/28 11:51:38;;;;;;;2.10;0.80;;;10.10;99.90;;;;;;7292128;32;20149;-62
2022/12/28 11:56:01;;;;;;;2.60;0.60;;;10.10;99.90;;;;;;7295372;32;20525;-62
2022/12/28 12:00:18;;;;;;;2.60;0.82;;;10.10;99.90;;;;;;7297020;32;20170;-63
2022/12/28 12:04:37;;;;;;;2.20;0.62;;;10.10;99.90;;;;;;7297016;32;20108;-62
2022/12/28 12:08:40;;;;;;;6.37;0.70;;;10.10;99.90;;;;;;7296076;32;20228;-62
2022/12/28 12:12:51;;;;;;;6.37;0.85;;;10.20;99.90;;;;;;7290391;32;20257;-60
2022/12/28 12:17:19;;;;;;;1.52;0.60;;;10.20;99.90;;;;;;7291031;32;20190;-59
2022/12/28 12:21:44;;;;;;;3.70;0.95;;;10.20;99.90;;;;;;7297726;32;20112;-60
2022/12/28 12:25:53;;;;;;;2.12;0.62;;;10.20;99.90;;;;;;7297043;32;20104;-61
2022/12/28 12:30:12;;;;;;;2.95;0.90;;;10.20;99.90;;;;;;7295673;32;20499;-62
2022/12/28 12:34:28;;;;;;;1.62;0.70;;;10.20;99.90;;;;;;7291825;32;20497;-62
2022/12/28 12:38:58;;;;;;;2.10;0.60;;;10.20;99.90;;;;;;7293310;32;20249;-61
2022/12/28 12:43:36;;;;;;;2.12;0.70;;;10.20;99.90;;;;;;7289667;32;20207;-62
2022/12/28 12:48:15;;;;;;;6.40;0.80;;;10.20;99.90;;;;;;7293907;32;20111;-61
2022/12/28 12:52:38;;;;;;;3.72;0.60;;;10.10;99.90;;;;;;7284156;32;20551;-61
2022/12/28 12:56:55;;;;;;;3.55;0.60;;;10.00;99.90;;;;;;7281966;32;20135;-61
2022/12/28 13:01:14;;;;;;;1.67;0.80;;;10.00;99.90;;;;;;7288379;32;20170;-61
2022/12/28 13:05:23;;;;;;;1.73;0.60;;;10.00;99.90;;;;;;7286509;32;20207;-61
2022/12/28 13:09:26;;;;;;;3.40;0.98;;;9.90;99.90;;;;;;7296742;32;20112;-61
2022/12/28 13:13:33;;;;;;;1.98;0.50;;;9.90;99.90;;;;;;7295826;32;20139;-61
2022/12/28 13:17:35;;;;;;;4.82;0.82;;;9.90;99.90;;;;;;7298496;32;20470;-61
2022/12/28 13:21:47;;;;;;;4.15;0.80;;;9.80;99.90;;;;;;7299358;32;20149;-61
2022/12/28 13:25:52;;;;;;;1.90;0.50;;;9.90;99.90;;;;;;7295197;32;20504;-61
2022/12/28 13:29:54;;;;;;;2.08;0.57;;;9.90;99.90;;;;;;7296118;32;20120;-62
2022/12/28 13:34:01;;;;;;;2.72;0.52;;;9.90;99.90;;;;;;7295715;32;20116;-61
2022/12/28 13:38:13;;;;;;;1.98;0.70;;;9.90;99.90;;;;;;7289989;32;20157;-62
2022/12/28 13:42:26;;;;;;;6.05;1.00;;;9.90;99.90;;;;;;7296739;32;20191;-62
2022/12/28 13:46:29;;;;;;;5.80;0.80;;;9.90;99.90;;;;;;7289428;32;20163;-63
2022/12/28 13:50:33;;;;;;;3.95;0.88;;;9.90;99.90;;;;;;7287749;32;20263;-62
2022/12/28 13:54:37;;;;;;;3.75;0.73;;;10.00;99.90;;;;;;7287096;32;20639;-62
2022/12/28 13:58:47;;;;;;;5.03;0.80;;;10.10;99.90;;;;;;7297508;32;20160;-62
2022/12/28 14:02:52;;;;;;;3.72;0.90;;;10.20;99.90;;;;;;7290667;32;20170;-62
2022/12/28 14:06:54;;;;;;;1.98;0.70;;;10.10;99.90;;;;;;7284546;32;20162;-62
2022/12/28 14:10:56;;;;;;;3.40;0.85;;;10.10;99.90;;;;;;7297237;32;20145;-62
2022/12/28 14:14:58;;;;;;;3.33;0.82;;;10.00;99.90;;;;;;7298089;32;20108;-62
2022/12/28 14:19:02;;;;;;;4.85;0.80;;;10.10;99.90;;;;;;7291900;32;21856;-61
2022/12/28 14:23:25;;;;;;;4.25;1.27;;;10.00;99.90;;;;;;7293578;32;20155;-61
2022/12/28 14:27:28;;;;;;;4.28;0.90;;;10.00;99.90;;;;;;7281825;32;20104;-61
2022/12/28 14:31:30;;;;;;;3.62;1.02;;;10.00;99.90;;;;;;7288358;32;20337;-63
2022/12/28 14:35:33;;;;;;;3.22;1.00;;;10.00;99.90;;;;;;7283696;32;20182;-62
2022/12/28 14:39:38;;;;;;;2.75;0.90;;;10.00;99.90;;;;;;7286174;32;20484;-61
2022/12/28 14:43:41;;;;;;;3.30;0.80;;;10.00;99.90;;;;;;7280664;32;20270;-61
2022/12/28 14:47:45;;;;;;;2.15;0.70;;;10.00;99.90;;;;;;7290427;32;20234;-63
2022/12/28 14:51:46;;;;;;;3.45;0.80;;;10.00;99.90;;;;;;7293068;32;20120;-62
2022/12/28 14:56:13;;;;;;;2.72;0.90;;;10.00;99.90;;;;;;7293132;32;20135;-62
2022/12/28 15:00:15;;;;;;;3.75;0.88;;;9.90;99.90;;;;;;7295908;32;20107;-64
2022/12/28 15:04:37;;;;;;;2.35;0.75;;;9.80;99.90;;;;;;7292327;32;20124;-63
2022/12/28 15:08:39;;;;;;;3.28;1.00;;;9.80;99.90;;;;;;7293030;32;20434;-63
2022/12/28 15:12:41;;;;;;;1.80;0.70;;;9.90;99.90;;;;;;7296267;32;20229;-63
2022/12/28 15:16:43;;;;;;;4.00;1.20;;;9.80;99.90;;;;;;7285817;32;20194;-61
2022/12/28 15:20:44;;;;;;;2.33;0.80;;;9.80;99.90;;;;;;7301637;32;20173;-59
2022/12/28 15:24:47;;;;;;;4.15;0.95;;;10.10;99.90;;;;;;7297733;32;20180;-59
2022/12/28 15:28:50;;;;;;;2.75;0.70;;;10.00;99.90;;;;;;7291633;32;20137;-61
2022/12/28 15:32:51;;;;;;;3.28;1.02;;;10.00;99.90;;;;;;7290796;32;20116;-62
2022/12/28 15:36:53;;;;;;;4.32;0.90;;;10.00;99.90;;;;;;7295304;32;20140;-62
2022/12/28 15:40:55;;;;;;;5.68;1.00;;;9.90;99.90;;;;;;7289658;32;20340;-61
2022/12/28 15:44:56;;;;;;;1.80;0.80;;;9.90;99.90;;;;;;7292021;32;20482;-59
2022/12/28 15:49:01;;;;;;;1.92;0.95;;;9.90;99.90;;;;;;7290738;32;20153;-59
2022/12/28 15:53:02;;;;;;;5.40;1.00;;;9.90;99.90;;;;;;7296815;32;20889;-59
2022/12/28 15:57:04;;;;;;;2.15;0.80;;;9.90;99.90;;;;;;7292800;32;20524;-59
2022/12/28 16:01:06;;;;;;;1.95;0.93;;;9.80;99.90;;;;;;7291222;32;20158;-59
2022/12/28 16:05:08;;;;;;;2.80;0.90;;;9.80;99.90;;;;;;7291353;32;20797;-60
2022/12/28 16:09:10;;;;;;;4.30;1.10;;;9.70;99.90;;;;;;7295214;32;20116;-59
2022/12/28 16:13:12;;;;;;;6.12;1.30;;;9.80;99.90;;;;;;7288606;32;20139;-59
2022/12/28 16:17:14;;;;;;;1.12;0.70;;;9.80;99.90;;;;;;7294278;32;20214;-59
2022/12/28 16:21:16;;;;;;;1.98;0.80;;;9.90;99.90;;;;;;7290357;32;20139;-59
2022/12/28 16:25:17;;;;;;;4.37;0.90;;;9.90;99.90;;;;;;7293617;32;20245;-60
2022/12/28 16:29:19;;;;;;;4.28;0.90;;;9.90;99.90;;;;;;7288145;32;20116;-60
2022/12/28 16:33:21;;;;;;;2.05;0.90;;;9.90;99.90;;;;;;7295287;32;20226;-60
2022/12/28 16:37:23;;;;;;;3.35;1.00;;;10.00;99.90;;;;;;7291922;32;20808;-61
2022/12/28 16:41:25;;;;;;;2.85;0.70;;;10.00;99.90;;;;;;7294871;32;20770;-60
2022/12/28 16:45:38;;;;;;;3.45;0.90;;;9.90;99.90;;;;;;7287679;32;20171;-61
2022/12/28 16:49:40;;;;;;;1.60;0.68;;;9.90;99.90;;;;;;7274046;32;20138;-60
2022/12/28 16:53:42;;;;;;;2.47;1.20;;;9.90;99.90;;;;;;7292043;32;20147;-61
2022/12/28 16:57:44;;;;;;;3.08;0.73;;;9.90;99.90;;;;;;7293964;32;20132;-62
2022/12/28 17:01:46;;;;;;;4.03;0.90;;;10.00;99.90;;;;;;7290934;32;20207;-61
2022/12/28 17:05:49;;;;;;;2.53;0.90;;;9.90;99.90;;;;;;7299307;32;20665;-60
2022/12/28 17:09:51;;;;;;;1.37;0.70;;;9.70;99.90;;;;;;7295434;32;20214;-60
2022/12/28 17:13:59;;;;;;;2.75;1.10;;;9.60;99.90;;;;;;7291103;32;20615;-62
2022/12/28 17:18:00;;;;;;;4.00;1.02;;;9.40;99.90;;;;;;7292297;32;20135;-61
2022/12/28 17:22:03;;;;;;;2.70;1.00;;;9.30;99.90;;;;;;7288384;32;20113;-61
2022/12/28 17:26:04;;;;;;;5.32;0.98;;;9.20;99.90;;;;;;7279558;32;20111;-62
2022/12/28 17:30:07;;;;;;;1.92;0.93;;;9.10;99.90;;;;;;7297088;32;20427;-62
2022/12/28 17:34:09;;;;;;;2.65;1.10;;;9.00;99.90;;;;;;7294501;32;20193;-60
2022/12/28 17:38:11;;;;;;;4.62;0.95;;;8.90;99.90;;;;;;7296321;32;20226;-59
2022/12/28 17:42:13;;;;;;;2.92;0.82;;;8.90;99.90;;;;;;7286363;32;20690;-60
2022/12/28 17:46:15;;;;;;;2.67;1.60;;;8.90;99.90;;;;;;7288229;32;20198;-61
2022/12/28 17:50:18;;;;;;;2.25;0.93;;;8.80;99.90;;;;;;7296260;32;20138;-61
2022/12/28 17:54:20;;;;;;;3.85;1.10;;;8.80;99.90;;;;;;7294910;32;20742;-61
2022/12/28 17:58:21;;;;;;;2.47;1.00;;;8.70;99.90;;;;;;7287685;32;20221;-59
2022/12/28 18:02:23;;;;;;;2.05;1.00;;;8.70;99.90;;;;;;7291156;32;20608;-60
2022/12/28 18:06:25;;;;;;;2.05;0.93;;;8.70;99.90;;;;;;7296142;32;20266;-59
2022/12/28 18:10:27;;;;;;;3.97;1.30;;;8.70;99.90;;;;;;7296788;32;20153;-60
2022/12/28 18:14:28;;;;;;;4.75;1.23;;;8.70;99.90;;;;;;7295343;32;20115;-60
2022/12/28 18:18:31;;;;;;;3.05;1.10;;;8.70;99.90;;;;;;7297441;32;20253;-59
2022/12/28 18:22:32;;;;;;;3.08;1.15;;;8.60;99.90;;;;;;7296942;32;20128;-60
2022/12/28 18:26:34;;;;;;;4.05;1.12;;;8.60;99.90;;;;;;7296497;32;20540;-60
2022/12/28 18:30:38;;;;;;;3.35;1.10;;;8.60;99.90;;;;;;7295052;32;20141;-60
2022/12/28 18:34:40;;;;;;;2.62;1.20;;;8.60;99.90;;;;;;7292064;32;20458;-62
2022/12/28 18:38:43;;;;;;;2.65;1.45;;;8.50;99.90;;;;;;7293775;32;20228;-61
2022/12/28 18:42:45;;;;;;;3.28;1.02;;;8.50;99.90;;;;;;7292626;32;20151;-59
2022/12/28 18:46:46;;;;;;;3.20;1.30;;;8.50;99.90;;;;;;7293344;32;20166;-60
2022/12/28 18:51:00;;;;;;;2.15;1.33;;;8.40;99.90;;;;;;7290992;32;20169;-59
2022/12/28 18:55:02;;;;;;;4.68;1.30;;;8.40;99.90;;;;;;7288553;32;20222;-61
2022/12/28 18:59:04;;;;;;;5.15;1.62;;;8.40;99.90;;;;;;7284836;32;20202;-61
2022/12/28 19:03:06;;;;;;;2.87;1.30;;;8.30;99.90;;;;;;7285658;32;20195;-58
2022/12/28 19:07:07;;;;;;;4.32;1.45;;;8.50;99.90;;;;;;7294182;32;20276;-59
2022/12/28 19:11:10;;;;;;;2.97;1.35;;;8.60;99.90;;;;;;7293531;32;20116;-61
2022/12/28 19:15:11;;;;;;;4.32;1.20;;;8.60;99.90;;;;;;7290186;32;20538;-59
2022/12/28 19:19:15;;;;;;;3.15;1.37;;;8.50;99.90;;;;;;7292361;32;20143;-62
2022/12/28 19:23:17;;;;;;;2.55;1.30;;;8.40;99.90;;;;;;7295964;32;20216;-61
2022/12/28 19:27:19;;;;;;;2.60;1.15;;;8.30;99.90;;;;;;7294915;32;20296;-62
2022/12/28 19:31:20;;;;;;;1.50;1.20;;;8.30;99.90;;;;;;7289859;32;20599;-61
2022/12/28 19:35:22;;;;;;;2.90;1.23;;;8.20;99.90;;;;;;7290713;32;20232;-61
2022/12/28 19:39:24;;;;;;;1.85;1.08;;;8.20;99.90;;;;;;7296637;32;20115;-61
2022/12/28 19:43:25;;;;;;;3.40;1.30;;;8.20;99.90;;;;;;7294401;32;20130;-61
2022/12/28 19:47:27;;;;;;;2.30;1.10;;;8.20;99.90;;;;;;7291564;32;20108;-61
2022/12/28 19:51:30;;;;;;;1.55;1.10;;;8.20;99.90;;;;;;7276094;32;20108;-62
2022/12/28 19:55:33;;;;;;;3.37;1.35;;;8.20;99.90;;;;;;7296136;32;20124;-63
2022/12/28 19:59:35;;;;;;;2.95;1.12;;;8.20;99.90;;;;;;7292879;32;20122;-62
2022/12/28 20:03:37;;;;;;;2.00;0.68;;;8.10;99.90;;;;;;7296422;32;20548;-62
2022/12/28 20:07:40;;;;;;;2.62;1.33;;;8.20;99.90;;;;;;7294784;32;20127;-63
2022/12/28 20:11:43;;;;;;;1.30;0.90;;;8.20;99.90;;;;;;7291385;32;20416;-63
2022/12/28 20:15:45;;;;;;;2.42;1.20;;;8.30;99.90;;;;;;7294089;32;22555;-61
2022/12/28 20:19:47;;;;;;;3.15;0.98;;;8.40;99.90;;;;;;7293025;32;20120;-63
2022/12/28 20:23:50;;;;;;;1.95;1.10;;;8.40;99.90;;;;;;7296965;32;20131;-63
2022/12/28 20:27:52;;;;;;;3.50;1.20;;;8.40;99.90;;;;;;7291146;32;20195;-62
2022/12/28 20:31:54;;;;;;;2.00;1.10;;;8.40;99.90;;;;;;7292316;32;20108;-63
2022/12/28 20:36:01;;;;;;;2.35;1.20;;;8.50;99.90;;;;;;7290840;32;20521;-61
2022/12/28 20:40:04;;;;;;;1.58;0.88;;;8.50;99.90;;;;;;7289578;32;20218;-61
2022/12/28 20:44:08;;;;;;;2.00;1.05;;;8.60;99.90;;;;;;7290593;32;20222;-62
2022/12/28 20:48:10;;;;;;;1.73;1.27;;;8.60;99.90;;;;;;7284667;32;20120;-62
2022/12/28 20:52:12;;;;;;;2.87;1.00;;;8.70;99.90;;;;;;7291399;32;20139;-61
2022/12/28 20:56:13;;;;;;;2.30;1.10;;;8.70;99.90;;;;;;7284868;32;20140;-62
2022/12/28 21:00:15;;;;;;;1.98;1.45;;;8.70;99.90;;;;;;7291979;32;20127;-62
2022/12/28 21:04:17;;;;;;;2.35;1.15;;;8.80;99.90;;;;;;7290217;32;20191;-62
2022/12/28 21:08:19;;;;;;;1.80;0.90;;;8.80;99.90;;;;;;7289679;32;20230;-62
2022/12/28 21:12:20;;;;;;;1.23;1.00;;;8.80;99.90;;;;;;7288937;32;20563;-62
2022/12/28 21:16:22;;;;;;;4.55;1.20;;;8.80;99.90;;;;;;7288259;32;20206;-61
2022/12/28 21:20:25;;;;;;;1.33;0.88;;;9.00;99.90;;;;;;7290529;32;20335;-62
2022/12/28 21:24:27;;;;;;;2.15;1.10;;;9.00;99.90;;;;;;7287370;32;20134;-62
2022/12/28 21:28:29;;;;;;;2.95;1.10;;;9.00;99.90;;;;;;7289938;32;20939;-61
2022/12/28 21:32:31;;;;;;;1.85;0.93;;;9.10;99.90;;;;;;7289310;32;20160;-62
2022/12/28 21:36:33;;;;;;;1.10;0.57;;;9.20;99.90;;;;;;7292694;32;20246;-62
2022/12/28 21:40:34;;;;;;;1.60;0.90;;;9.30;99.90;;;;;;7295541;32;20255;-62
2022/12/28 21:44:36;;;;;;;1.55;0.90;;;9.30;99.90;;;;;;7294935;32;20528;-62
2022/12/28 21:48:38;;;;;;;3.17;0.80;;;9.40;99.90;;;;;;7292505;32;20107;-60
2022/12/28 21:52:40;;;;;;;1.67;0.77;;;9.50;99.90;;;;;;7294574;32;20126;-61
2022/12/28 21:56:44;;;;;;;0.93;0.62;;;9.60;99.90;;;;;;7296632;32;20157;-61